Time;durP1;ratioP1;P1;durP2;ratioP2;P2;SDS_P1;SDS_P2;PMS_P1;PMS_P2;Temp;Humidity;BMP_temperature;BMP_pressure;BME280_temperature;BME280_humidity;BME280_pressure;Samples;Min_cycle;Max_cycle;Signal;HPM_P1;HPM_P2
2023/01/19 00:01:32;;;;;;;36.42;9.80;;;15.10;99.90;;;;;;5068198;28;20083;-76
2023/01/19 00:03:59;;;;;;;50.72;15.25;;;15.10;99.90;;;;;;5065695;28;20033;-75
2023/01/19 00:06:27;;;;;;;56.15;13.57;;;15.10;99.90;;;;;;5070277;28;20044;-75
2023/01/19 00:08:55;;;;;;;47.03;15.20;;;15.10;99.90;;;;;;5067771;28;20502;-75
2023/01/19 00:11:23;;;;;;;47.22;12.10;;;15.10;99.90;;;;;;5068812;28;20098;-75
2023/01/19 00:13:50;;;;;;;63.15;15.48;;;15.10;99.90;;;;;;5066398;28;20052;-76
2023/01/19 00:16:21;;;;;;;37.10;11.45;;;15.10;99.90;;;;;;5066171;28;20056;-75
2023/01/19 00:18:51;;;;;;;49.35;14.30;;;15.20;99.90;;;;;;5034819;28;20091;-75
2023/01/19 00:21:20;;;;;;;44.78;14.15;;;15.20;99.90;;;;;;5068916;28;20114;-76
2023/01/19 00:23:49;;;;;;;48.42;14.30;;;15.20;99.90;;;;;;5061578;28;20040;-75
2023/01/19 00:26:19;;;;;;;57.05;13.18;;;15.20;99.90;;;;;;5068896;28;20068;-76
2023/01/19 00:28:48;;;;;;;40.22;11.98;;;15.20;99.90;;;;;;5068160;28;20545;-75
2023/01/19 00:31:19;;;;;;;42.25;13.70;;;15.20;99.90;;;;;;5067596;28;20063;-74
2023/01/19 00:33:48;;;;;;;53.33;13.27;;;15.20;99.90;;;;;;5067666;28;20052;-74
2023/01/19 00:36:15;;;;;;;47.63;13.77;;;15.20;99.90;;;;;;5068190;28;20102;-75
2023/01/19 00:38:43;;;;;;;50.97;13.30;;;15.20;99.90;;;;;;5066589;28;20105;-75
2023/01/19 00:41:10;;;;;;;43.53;12.73;;;15.20;99.90;;;;;;5078240;28;20162;-75
2023/01/19 00:43:38;;;;;;;50.00;15.18;;;15.20;99.90;;;;;;5050350;28;20127;-74
2023/01/19 00:46:06;;;;;;;50.22;14.25;;;15.10;99.90;;;;;;5068373;28;20127;-75
2023/01/19 00:48:33;;;;;;;43.65;13.48;;;15.10;99.90;;;;;;5068077;28;20044;-75
2023/01/19 00:51:01;;;;;;;57.67;14.57;;;15.10;99.90;;;;;;5067329;28;20127;-75
2023/01/19 00:53:31;;;;;;;38.40;14.02;;;15.10;99.90;;;;;;5050168;28;20485;-76
2023/01/19 00:55:58;;;;;;;48.97;12.00;;;15.10;99.90;;;;;;5068522;28;20048;-75
2023/01/19 00:58:26;;;;;;;39.85;13.02;;;15.10;99.90;;;;;;5067481;28;20056;-75
2023/01/19 01:00:56;;;;;;;41.40;14.35;;;15.10;99.90;;;;;;5066412;28;20367;-75
2023/01/19 01:03:26;;;;;;;44.42;12.50;;;15.10;99.90;;;;;;5066990;28;20127;-76
2023/01/19 01:05:54;;;;;;;45.45;13.48;;;15.20;99.90;;;;;;5051647;28;20123;-75
2023/01/19 01:08:21;;;;;;;57.30;14.48;;;15.20;99.90;;;;;;5067578;28;20040;-75
2023/01/19 01:10:53;;;;;;;44.60;13.35;;;15.30;99.90;;;;;;5049487;28;20179;-76
2023/01/19 01:13:20;;;;;;;44.25;10.77;;;15.30;99.90;;;;;;5066239;28;20056;-75
2023/01/19 01:15:50;;;;;;;47.55;12.32;;;15.30;99.90;;;;;;5065958;28;20040;-74
2023/01/19 01:18:18;;;;;;;44.88;13.02;;;15.30;99.90;;;;;;5050830;28;20437;-75
2023/01/19 01:20:46;;;;;;;47.45;11.40;;;15.30;99.90;;;;;;5067256;28;20056;-74
2023/01/19 01:23:14;;;;;;;43.83;12.93;;;15.30;99.90;;;;;;5066492;28;20041;-76
2023/01/19 01:25:42;;;;;;;45.03;11.52;;;15.30;99.90;;;;;;5057416;28;20106;-76
2023/01/19 01:28:09;;;;;;;48.53;11.73;;;15.30;99.90;;;;;;5050429;28;20090;-76
2023/01/19 01:30:39;;;;;;;48.78;14.90;;;15.30;99.90;;;;;;5067339;28;20041;-75
2023/01/19 01:33:08;;;;;;;55.20;13.63;;;15.30;99.90;;;;;;5044708;28;20044;-74
2023/01/19 01:35:35;;;;;;;39.88;12.93;;;15.30;99.90;;;;;;5065435;28;20048;-74
2023/01/19 01:38:03;;;;;;;30.23;11.20;;;15.30;99.90;;;;;;5067525;28;20141;-76
2023/01/19 01:40:31;;;;;;;41.22;10.98;;;15.40;99.90;;;;;;5065438;28;20054;-75
2023/01/19 01:42:58;;;;;;;35.85;10.88;;;15.30;99.90;;;;;;5067300;28;20125;-75
2023/01/19 01:45:37;;;;;;;39.42;11.60;;;15.30;99.90;;;;;;5049389;28;20054;-76
2023/01/19 01:48:25;;;;;;;42.28;11.93;;;15.30;99.90;;;;;;5068485;28;20068;-75
2023/01/19 01:53:50;;;;;;;37.08;11.57;;;15.30;99.90;;;;;;5064263;28;20057;-76
2023/01/19 01:56:24;;;;;;;42.53;11.75;;;15.30;99.90;;;;;;5063147;28;20048;-76
2023/01/19 01:58:51;;;;;;;41.58;11.18;;;15.30;99.90;;;;;;5065633;28;20044;-75
2023/01/19 02:04:06;;;;;;;45.33;12.65;;;15.20;99.90;;;;;;5061786;28;20226;-74
2023/01/19 02:14:54;;;;;;;44.00;12.82;;;15.20;99.90;;;;;;5069202;28;20075;-75
2023/01/19 02:17:22;;;;;;;46.22;12.48;;;15.20;99.90;;;;;;5051396;28;20059;-74
2023/01/19 02:19:50;;;;;;;41.15;12.38;;;15.20;99.90;;;;;;5063274;28;20565;-74
2023/01/19 02:22:49;;;;;;;37.65;10.68;;;15.10;99.90;;;;;;5062632;28;20056;-75
2023/01/19 02:25:18;;;;;;;43.55;13.23;;;15.10;99.90;;;;;;5058314;28;20045;-75
2023/01/19 02:27:47;;;;;;;47.03;11.65;;;15.10;99.90;;;;;;5048617;28;20068;-75
2023/01/19 02:30:16;;;;;;;50.58;13.63;;;15.10;99.90;;;;;;5062466;28;20549;-75
2023/01/19 02:32:43;;;;;;;60.40;14.75;;;15.10;99.90;;;;;;5064517;28;20036;-75
2023/01/19 02:35:14;;;;;;;41.53;13.05;;;15.10;99.90;;;;;;5064443;28;20099;-75
2023/01/19 02:37:43;;;;;;;58.88;16.63;;;15.10;99.90;;;;;;5053945;28;20113;-76
2023/01/19 02:40:14;;;;;;;38.63;13.02;;;15.10;99.90;;;;;;5065880;28;20040;-75
2023/01/19 02:42:51;;;;;;;36.65;10.65;;;15.10;99.90;;;;;;5055460;28;20049;-75
2023/01/19 02:45:21;;;;;;;41.90;10.50;;;15.10;99.90;;;;;;5060640;28;20437;-75
2023/01/19 02:47:51;;;;;;;36.78;11.25;;;15.10;99.90;;;;;;5067350;28;20113;-75
2023/01/19 02:50:44;;;;;;;38.15;9.93;;;15.20;99.90;;;;;;5049326;28;20068;-75
2023/01/19 02:53:30;;;;;;;38.33;10.93;;;15.10;99.90;;;;;;5068041;28;20094;-75
2023/01/19 02:56:04;;;;;;;43.42;15.35;;;15.10;99.90;;;;;;5067072;28;20048;-74
2023/01/19 02:59:03;;;;;;;43.47;10.88;;;15.10;99.90;;;;;;5066927;28;20047;-75
2023/01/19 03:01:50;;;;;;;31.42;11.52;;;15.10;99.90;;;;;;5013859;28;20053;-75
2023/01/19 03:04:27;;;;;;;30.25;11.10;;;15.20;99.90;;;;;;5065636;28;20029;-76
2023/01/19 03:07:08;;;;;;;32.63;11.85;;;15.10;99.90;;;;;;5065716;28;20085;-76
2023/01/19 03:10:01;;;;;;;32.60;10.70;;;15.10;99.90;;;;;;5066359;28;20098;-76
2023/01/19 03:12:40;;;;;;;19.23;6.10;;;15.00;99.90;;;;;;5050487;28;20131;-75
2023/01/19 03:15:19;;;;;;;16.13;4.88;;;14.90;99.90;;;;;;5051244;28;20056;-75
2023/01/19 03:17:49;;;;;;;10.63;3.47;;;14.60;99.90;;;;;;5068487;28;20463;-76
2023/01/19 03:20:23;;;;;;;8.75;3.17;;;14.20;99.90;;;;;;5067391;28;20052;-76
2023/01/19 03:22:59;;;;;;;13.15;3.75;;;13.90;99.90;;;;;;5068900;28;20054;-74
2023/01/19 03:25:30;;;;;;;8.88;3.17;;;13.70;99.90;;;;;;5068390;28;20044;-75
2023/01/19 03:27:57;;;;;;;10.32;3.63;;;13.40;99.90;;;;;;5068643;28;20052;-75
2023/01/19 03:30:28;;;;;;;12.75;4.10;;;13.40;99.90;;;;;;5068743;28;20112;-74
2023/01/19 03:33:04;;;;;;;14.27;5.00;;;13.40;99.90;;;;;;5069036;28;20036;-74
2023/01/19 03:35:34;;;;;;;14.02;2.65;;;13.40;99.90;;;;;;5067192;28;20486;-74
2023/01/19 03:38:07;;;;;;;9.35;2.70;;;13.50;99.90;;;;;;5050480;28;20044;-75
2023/01/19 03:40:36;;;;;;;12.13;3.03;;;13.50;99.90;;;;;;5068388;28;20143;-74
2023/01/19 03:43:04;;;;;;;2.35;1.60;;;13.60;99.90;;;;;;5068594;28;20033;-74
2023/01/19 03:45:35;;;;;;;12.70;2.58;;;13.40;99.90;;;;;;5068039;28;20036;-74
2023/01/19 03:48:05;;;;;;;9.68;3.05;;;13.20;99.90;;;;;;5068524;28;20040;-75
2023/01/19 03:50:32;;;;;;;8.15;3.33;;;13.00;99.90;;;;;;5068099;28;20071;-76
2023/01/19 03:53:06;;;;;;;14.52;3.25;;;13.00;99.90;;;;;;5067007;28;20127;-75
2023/01/19 03:55:36;;;;;;;5.95;2.20;;;13.00;99.90;;;;;;5067804;28;20043;-75
2023/01/19 03:58:04;;;;;;;8.23;2.42;;;13.00;99.90;;;;;;5068600;28;20051;-75
2023/01/19 04:00:32;;;;;;;14.30;2.58;;;13.10;99.90;;;;;;5068352;28;20040;-74
2023/01/19 04:03:00;;;;;;;5.93;2.10;;;13.10;99.90;;;;;;5067389;28;20044;-74
2023/01/19 04:05:28;;;;;;;6.75;2.05;;;13.20;99.90;;;;;;5050314;28;20459;-74
2023/01/19 04:07:56;;;;;;;9.88;2.55;;;13.20;99.90;;;;;;5068144;28;20507;-75
2023/01/19 04:10:24;;;;;;;8.35;3.58;;;13.30;99.90;;;;;;5066956;28;20490;-75
2023/01/19 04:12:57;;;;;;;8.55;2.40;;;13.50;99.90;;;;;;5066634;28;20441;-75
2023/01/19 04:15:26;;;;;;;5.65;2.70;;;13.50;99.90;;;;;;5067131;28;20059;-75
2023/01/19 04:17:55;;;;;;;7.15;2.20;;;13.60;99.90;;;;;;5067916;28;20650;-74
2023/01/19 04:20:25;;;;;;;5.78;2.55;;;13.50;99.90;;;;;;5067977;28;20045;-74
2023/01/19 04:22:54;;;;;;;8.60;3.30;;;13.50;99.90;;;;;;5068511;28;20080;-74
2023/01/19 04:25:22;;;;;;;8.25;3.95;;;13.50;99.90;;;;;;5067274;28;20453;-75
2023/01/19 04:27:53;;;;;;;8.23;3.00;;;13.50;99.90;;;;;;5067967;28;20376;-74
2023/01/19 04:30:21;;;;;;;8.77;3.65;;;13.50;99.90;;;;;;5058971;28;20069;-74
2023/01/19 04:32:48;;;;;;;5.70;3.28;;;13.30;99.90;;;;;;5047347;28;20057;-75
2023/01/19 04:35:16;;;;;;;6.93;2.83;;;13.30;99.90;;;;;;5046905;28;20045;-75
2023/01/19 04:37:44;;;;;;;8.02;3.13;;;13.30;99.90;;;;;;5050925;28;20051;-74
2023/01/19 04:40:12;;;;;;;13.35;2.80;;;13.40;99.90;;;;;;5069863;28;20403;-74
2023/01/19 04:42:44;;;;;;;7.80;2.05;;;13.50;99.90;;;;;;5071817;28;20184;-74
2023/01/19 04:45:12;;;;;;;9.07;2.88;;;13.40;99.90;;;;;;5071522;28;20037;-74
2023/01/19 04:47:41;;;;;;;5.22;2.67;;;13.40;99.90;;;;;;5053271;28;20055;-74
2023/01/19 04:50:10;;;;;;;6.63;2.95;;;13.30;99.90;;;;;;5071371;28;20092;-74
2023/01/19 04:52:37;;;;;;;4.90;2.78;;;13.30;99.90;;;;;;5071545;28;20132;-74
2023/01/19 04:55:06;;;;;;;6.85;2.42;;;13.30;99.90;;;;;;5070187;28;20052;-74
2023/01/19 04:57:34;;;;;;;9.48;2.65;;;13.30;99.90;;;;;;5053065;28;20490;-74
2023/01/19 05:00:05;;;;;;;5.78;2.10;;;13.30;99.90;;;;;;5032848;28;20041;-74
2023/01/19 05:02:33;;;;;;;8.07;2.72;;;13.20;99.90;;;;;;5050841;28;20128;-75
2023/01/19 05:05:01;;;;;;;4.63;2.15;;;13.10;99.90;;;;;;5051231;28;20348;-75
2023/01/19 05:07:29;;;;;;;7.35;2.70;;;12.90;99.90;;;;;;5050970;28;20851;-75
2023/01/19 05:09:56;;;;;;;7.10;2.20;;;13.00;99.90;;;;;;5067497;28;20060;-74
2023/01/19 05:12:24;;;;;;;4.78;1.92;;;13.00;99.90;;;;;;5070353;28;20135;-74
2023/01/19 05:14:51;;;;;;;5.90;1.98;;;12.90;99.90;;;;;;5052928;28;20114;-74
2023/01/19 05:17:19;;;;;;;9.35;4.13;;;12.90;99.90;;;;;;5070514;28;20052;-75
2023/01/19 05:19:47;;;;;;;8.75;3.08;;;13.00;99.90;;;;;;5069049;28;20048;-74
2023/01/19 05:22:16;;;;;;;9.73;3.38;;;12.90;99.90;;;;;;5070492;28;20186;-74
2023/01/19 05:24:43;;;;;;;7.28;3.70;;;13.00;99.90;;;;;;5070630;28;20422;-74
2023/01/19 05:27:11;;;;;;;9.13;2.55;;;13.00;99.90;;;;;;5069478;28;20037;-74
2023/01/19 05:29:39;;;;;;;7.22;3.05;;;12.90;99.90;;;;;;5069177;28;20047;-74
2023/01/19 05:32:06;;;;;;;6.00;1.80;;;12.90;99.90;;;;;;5070907;28;20143;-74
2023/01/19 05:34:34;;;;;;;15.20;3.75;;;12.90;99.90;;;;;;5070816;28;20153;-75
2023/01/19 05:37:02;;;;;;;10.13;4.00;;;12.90;99.90;;;;;;5069477;28;20044;-75
2023/01/19 05:39:29;;;;;;;9.68;2.90;;;12.90;99.90;;;;;;5060705;28;21334;-74
2023/01/19 05:41:57;;;;;;;10.00;3.60;;;12.90;99.90;;;;;;5068788;28;20059;-74
2023/01/19 05:44:25;;;;;;;11.02;4.07;;;12.90;99.90;;;;;;5070230;28;20131;-74
2023/01/19 05:46:52;;;;;;;9.15;3.13;;;12.90;99.90;;;;;;5069946;28;20044;-74
2023/01/19 05:49:20;;;;;;;16.70;5.68;;;12.80;99.90;;;;;;5069910;28;20044;-74
2023/01/19 05:51:47;;;;;;;7.07;4.00;;;12.80;99.90;;;;;;5070066;28;20037;-75
2023/01/19 05:54:15;;;;;;;5.57;2.30;;;12.80;99.90;;;;;;5068866;28;20052;-74
2023/01/19 05:56:43;;;;;;;14.50;4.15;;;12.80;99.90;;;;;;5069834;28;20072;-74
2023/01/19 05:59:10;;;;;;;8.48;3.38;;;12.80;99.90;;;;;;5069647;28;20436;-74
2023/01/19 06:01:38;;;;;;;16.58;4.13;;;12.80;99.90;;;;;;5049963;28;20061;-74
2023/01/19 06:04:06;;;;;;;16.95;4.32;;;12.80;99.90;;;;;;5049032;28;20047;-74
2023/01/19 06:06:34;;;;;;;19.83;5.95;;;12.80;99.90;;;;;;5049547;28;20132;-75
2023/01/19 06:09:01;;;;;;;32.15;7.05;;;12.90;99.90;;;;;;5056243;28;20033;-76
2023/01/19 06:11:29;;;;;;;20.23;7.78;;;12.90;99.90;;;;;;5068179;28;20435;-74
2023/01/19 06:13:56;;;;;;;40.50;20.15;;;13.00;99.90;;;;;;5069515;28;20131;-74
2023/01/19 06:16:24;;;;;;;87.97;36.30;;;13.00;99.90;;;;;;5069544;28;20068;-75
2023/01/19 06:18:52;;;;;;;60.90;25.85;;;13.00;99.90;;;;;;5069486;28;20090;-75
2023/01/19 06:21:20;;;;;;;41.15;13.48;;;13.10;99.90;;;;;;5069472;28;20164;-75
2023/01/19 06:23:48;;;;;;;51.22;18.10;;;13.20;99.90;;;;;;5067919;28;20074;-74
2023/01/19 06:26:15;;;;;;;47.10;14.15;;;13.20;99.90;;;;;;5069003;28;20110;-74
2023/01/19 06:28:47;;;;;;;41.00;12.25;;;13.30;99.90;;;;;;5069103;28;20037;-74
2023/01/19 06:31:17;;;;;;;45.58;12.73;;;13.40;99.90;;;;;;5068888;28;20055;-75
2023/01/19 06:33:45;;;;;;;36.15;12.55;;;13.40;99.90;;;;;;5067415;28;20056;-74
2023/01/19 06:36:13;;;;;;;41.30;13.30;;;13.40;99.90;;;;;;5051374;28;20120;-74
2023/01/19 06:38:41;;;;;;;36.13;10.88;;;13.40;99.90;;;;;;5069108;28;20056;-74
2023/01/19 06:41:08;;;;;;;34.10;11.73;;;13.40;99.90;;;;;;5050475;28;20467;-74
2023/01/19 06:43:36;;;;;;;42.97;12.68;;;13.40;99.90;;;;;;5068950;28;20565;-75
2023/01/19 06:46:03;;;;;;;40.55;13.40;;;13.40;99.90;;;;;;5069228;28;20146;-74
2023/01/19 06:48:31;;;;;;;30.85;11.15;;;13.50;99.90;;;;;;5069553;28;20044;-74
2023/01/19 06:50:59;;;;;;;47.95;13.00;;;13.50;99.90;;;;;;5068976;28;20048;-74
2023/01/19 06:53:27;;;;;;;41.40;12.88;;;13.40;99.90;;;;;;5068477;28;20474;-76
2023/01/19 06:56:02;;;;;;;33.28;11.63;;;13.50;99.90;;;;;;5066911;28;20340;-74
2023/01/19 06:58:30;;;;;;;32.72;12.45;;;13.50;99.90;;;;;;5068140;28;20044;-74
2023/01/19 07:01:03;;;;;;;33.10;10.20;;;13.50;99.90;;;;;;5066582;28;20511;-75
2023/01/19 07:03:32;;;;;;;35.10;9.52;;;13.50;99.90;;;;;;5067299;28;20419;-74
2023/01/19 07:06:01;;;;;;;34.05;8.73;;;13.60;99.90;;;;;;5068664;28;20037;-74
2023/01/19 07:08:33;;;;;;;29.90;8.48;;;13.50;99.90;;;;;;5068432;28;20055;-75
2023/01/19 07:11:06;;;;;;;25.27;7.70;;;13.60;99.90;;;;;;5067389;28;20045;-75
2023/01/19 07:13:34;;;;;;;31.60;7.57;;;13.60;99.90;;;;;;5068320;28;20048;-74
2023/01/19 07:16:06;;;;;;;21.40;7.70;;;13.60;99.90;;;;;;5068770;28;20055;-74
2023/01/19 07:18:35;;;;;;;17.80;6.03;;;13.60;99.90;;;;;;5068579;28;20040;-74
2023/01/19 07:21:04;;;;;;;19.02;5.38;;;13.60;99.90;;;;;;5066772;28;20075;-74
2023/01/19 07:23:31;;;;;;;19.55;5.68;;;13.60;99.90;;;;;;5068436;28;20044;-75
2023/01/19 07:26:03;;;;;;;34.97;7.07;;;13.70;99.90;;;;;;5068366;28;20052;-74
2023/01/19 07:28:31;;;;;;;26.77;7.63;;;13.70;99.90;;;;;;5067337;28;20137;-74
2023/01/19 07:30:59;;;;;;;16.90;6.82;;;13.70;99.90;;;;;;5068180;28;20057;-74
2023/01/19 07:33:28;;;;;;;17.83;6.57;;;13.70;99.90;;;;;;5068292;28;20493;-75
2023/01/19 07:35:56;;;;;;;18.63;6.05;;;13.70;99.90;;;;;;5068398;28;20049;-75
2023/01/19 07:38:23;;;;;;;20.33;5.82;;;13.70;99.90;;;;;;5067029;28;20878;-74
2023/01/19 07:40:51;;;;;;;13.98;5.05;;;13.70;99.90;;;;;;5068725;28;20185;-74
2023/01/19 07:43:18;;;;;;;18.65;5.93;;;13.70;99.90;;;;;;5066861;28;20139;-74
2023/01/19 07:45:46;;;;;;;16.33;6.15;;;13.70;99.90;;;;;;5068365;28;20071;-74
2023/01/19 07:48:14;;;;;;;14.20;6.10;;;13.80;99.90;;;;;;5067986;28;20052;-75
2023/01/19 07:50:41;;;;;;;13.70;4.57;;;13.80;99.90;;;;;;5068124;28;20044;-74
2023/01/19 07:53:10;;;;;;;18.05;4.82;;;13.80;99.90;;;;;;5068480;28;20055;-75
2023/01/19 07:55:39;;;;;;;15.05;4.72;;;13.90;99.90;;;;;;5067831;28;20055;-74
2023/01/19 07:58:07;;;;;;;19.35;6.68;;;13.90;99.90;;;;;;5068175;28;20417;-74
2023/01/19 08:00:37;;;;;;;19.50;4.22;;;13.90;99.90;;;;;;5067688;28;20051;-74
2023/01/19 08:03:05;;;;;;;9.07;4.70;;;13.90;99.90;;;;;;5067859;28;20127;-74
2023/01/19 08:05:33;;;;;;;14.40;4.88;;;14.00;99.90;;;;;;5066399;28;20044;-75
2023/01/19 08:08:01;;;;;;;9.80;4.10;;;14.00;99.90;;;;;;5067463;28;20056;-74
2023/01/19 08:10:29;;;;;;;7.70;3.78;;;14.00;99.90;;;;;;5068182;28;20052;-74
2023/01/19 08:12:57;;;;;;;22.25;5.28;;;14.00;99.90;;;;;;5072040;28;20040;-74
2023/01/19 08:15:26;;;;;;;13.57;3.83;;;14.10;99.90;;;;;;5071557;28;20041;-74
2023/01/19 08:17:56;;;;;;;17.27;4.53;;;14.10;99.90;;;;;;5071569;28;20067;-74
2023/01/19 08:20:24;;;;;;;13.23;6.80;;;14.10;99.90;;;;;;5071423;28;20459;-74
2023/01/19 08:22:58;;;;;;;16.08;4.55;;;14.20;99.90;;;;;;5071502;28;20041;-76
2023/01/19 08:25:36;;;;;;;12.25;4.82;;;14.20;99.90;;;;;;5070232;28;20041;-74
2023/01/19 08:28:05;;;;;;;16.02;5.03;;;14.20;99.90;;;;;;5070354;28;20044;-75
2023/01/19 08:30:34;;;;;;;13.45;3.47;;;14.30;99.90;;;;;;5070176;28;20063;-74
2023/01/19 08:33:06;;;;;;;15.40;4.25;;;14.30;99.90;;;;;;5071529;28;20052;-74
2023/01/19 08:35:37;;;;;;;10.98;4.68;;;14.40;99.90;;;;;;5071545;28;20052;-74
2023/01/19 08:38:05;;;;;;;11.90;3.95;;;14.40;99.90;;;;;;5071446;28;20525;-74
2023/01/19 08:40:36;;;;;;;11.68;3.90;;;14.40;99.90;;;;;;5069579;28;20453;-75
2023/01/19 08:43:06;;;;;;;13.27;4.68;;;14.40;99.90;;;;;;5053390;28;20048;-74
2023/01/19 08:45:35;;;;;;;17.35;5.32;;;14.50;99.90;;;;;;5071479;28;20049;-74
2023/01/19 08:48:05;;;;;;;14.45;3.97;;;14.60;99.90;;;;;;5071016;28;20052;-74
2023/01/19 08:50:33;;;;;;;19.48;5.55;;;14.70;99.90;;;;;;5070890;28;20036;-74
2023/01/19 08:53:03;;;;;;;11.77;4.45;;;14.70;99.90;;;;;;5070687;28;20135;-74
2023/01/19 08:55:32;;;;;;;16.20;5.35;;;14.70;99.90;;;;;;5070648;28;20060;-74
2023/01/19 08:58:02;;;;;;;13.02;5.15;;;14.70;99.90;;;;;;5071261;28;20456;-74
2023/01/19 09:00:33;;;;;;;12.27;4.57;;;14.80;99.90;;;;;;5069679;28;20465;-75
2023/01/19 09:03:02;;;;;;;9.45;4.25;;;14.90;99.90;;;;;;5052983;28;20049;-74
2023/01/19 09:05:36;;;;;;;9.50;3.53;;;15.00;99.90;;;;;;5069299;28;20044;-74
2023/01/19 09:08:08;;;;;;;10.98;4.53;;;15.00;99.90;;;;;;5070779;28;20044;-75
2023/01/19 09:10:37;;;;;;;14.82;4.90;;;15.10;99.90;;;;;;5062735;28;20376;-74
2023/01/19 09:13:09;;;;;;;12.02;5.75;;;15.30;99.90;;;;;;5070575;28;20063;-74
2023/01/19 09:15:38;;;;;;;13.05;5.18;;;15.30;99.90;;;;;;5068921;28;20155;-74
2023/01/19 09:18:12;;;;;;;9.98;4.38;;;15.30;99.90;;;;;;5069088;28;20525;-74
2023/01/19 09:20:41;;;;;;;8.30;3.80;;;15.30;99.90;;;;;;5070066;28;20045;-74
2023/01/19 09:23:11;;;;;;;17.38;3.72;;;15.30;99.90;;;;;;5070140;28;20048;-73
2023/01/19 09:25:44;;;;;;;9.95;5.20;;;15.20;99.90;;;;;;5070455;28;20045;-75
2023/01/19 09:28:14;;;;;;;9.13;2.67;;;15.10;99.90;;;;;;5069247;28;20060;-74
2023/01/19 09:30:43;;;;;;;5.82;2.67;;;14.90;99.90;;;;;;5070094;28;20048;-74
2023/01/19 09:33:16;;;;;;;8.05;2.33;;;14.80;99.90;;;;;;5069937;28;20044;-74
2023/01/19 09:35:45;;;;;;;5.75;2.92;;;14.70;99.90;;;;;;5069996;28;20045;-74
2023/01/19 09:38:15;;;;;;;9.20;2.92;;;14.60;99.90;;;;;;5070225;28;20068;-74
2023/01/19 09:40:48;;;;;;;11.55;3.90;;;14.60;99.90;;;;;;5070334;28;20041;-74
2023/01/19 09:43:38;;;;;;;5.85;2.85;;;14.50;99.90;;;;;;5069929;28;20044;-74
2023/01/19 09:46:37;;;;;;;5.57;2.40;;;14.50;99.90;;;;;;5070175;28;20040;-73
2023/01/19 09:49:13;;;;;;;12.60;4.05;;;14.50;99.90;;;;;;5069851;28;20155;-74
2023/01/19 09:51:45;;;;;;;5.82;3.08;;;14.70;99.90;;;;;;5067961;28;20048;-74
2023/01/19 09:54:20;;;;;;;7.28;3.42;;;14.80;99.90;;;;;;5068746;28;20075;-74
2023/01/19 09:56:49;;;;;;;9.57;2.60;;;15.10;99.90;;;;;;5068625;28;20054;-75
2023/01/19 09:59:23;;;;;;;7.88;3.33;;;15.40;99.90;;;;;;5069090;28;20563;-75
2023/01/19 10:02:00;;;;;;;5.28;3.15;;;15.60;99.90;;;;;;5069408;28;20118;-75
2023/01/19 10:04:30;;;;;;;9.93;2.72;;;15.70;99.90;;;;;;5069811;28;20045;-75
2023/01/19 10:07:27;;;;;;;6.13;2.45;;;15.90;99.90;;;;;;5069915;28;20044;-74
2023/01/19 10:10:21;;;;;;;6.00;2.22;;;15.90;99.90;;;;;;5067996;28;20036;-74
2023/01/19 10:13:00;;;;;;;8.40;2.25;;;15.90;99.90;;;;;;5069396;28;20044;-75
2023/01/19 10:15:53;;;;;;;3.67;2.05;;;15.80;99.90;;;;;;5069005;28;20474;-75
2023/01/19 10:18:44;;;;;;;6.07;1.55;;;15.70;99.90;;;;;;5069272;28;20626;-75
2023/01/19 10:21:12;;;;;;;5.90;1.90;;;15.80;99.90;;;;;;5048104;28;20079;-75
2023/01/19 10:23:42;;;;;;;5.03;2.08;;;15.80;99.90;;;;;;5068835;28;20040;-75
2023/01/19 10:26:42;;;;;;;12.73;2.33;;;15.70;99.90;;;;;;5069461;28;20131;-74
2023/01/19 10:29:27;;;;;;;5.95;2.15;;;15.70;99.90;;;;;;5061184;28;20074;-75
2023/01/19 10:32:11;;;;;;;5.30;3.42;;;15.80;99.90;;;;;;5066919;28;20037;-75
2023/01/19 10:34:40;;;;;;;5.68;2.45;;;15.90;99.90;;;;;;5067143;28;20066;-75
2023/01/19 10:37:23;;;;;;;6.00;1.90;;;16.10;99.90;;;;;;5068948;28;20068;-74
2023/01/19 10:40:10;;;;;;;10.77;3.22;;;15.90;99.90;;;;;;5068700;28;20132;-74
2023/01/19 10:42:40;;;;;;;7.00;2.55;;;15.80;99.90;;;;;;5067426;28;20040;-75
2023/01/19 10:45:19;;;;;;;6.32;2.22;;;15.90;99.90;;;;;;5069273;28;20045;-75
2023/01/19 10:47:48;;;;;;;7.60;3.25;;;15.80;99.90;;;;;;5068550;28;20132;-75
2023/01/19 10:50:25;;;;;;;13.13;3.38;;;15.80;99.90;;;;;;5051020;28;20047;-75
2023/01/19 10:52:56;;;;;;;9.20;2.70;;;15.80;99.90;;;;;;5068706;28;20040;-75
2023/01/19 10:55:32;;;;;;;7.63;3.08;;;15.50;99.90;;;;;;5068466;28;20045;-74
2023/01/19 10:58:00;;;;;;;5.57;2.55;;;15.40;99.90;;;;;;5068995;28;20131;-75
2023/01/19 11:00:39;;;;;;;7.43;2.30;;;15.40;99.90;;;;;;5068983;28;20045;-75
2023/01/19 11:03:29;;;;;;;6.93;2.53;;;15.40;99.90;;;;;;5068388;28;20047;-75
2023/01/19 11:06:20;;;;;;;6.25;2.85;;;15.40;99.90;;;;;;5069119;28;20045;-74
2023/01/19 11:08:50;;;;;;;8.07;2.20;;;15.40;99.90;;;;;;5068877;28;20040;-74
2023/01/19 11:11:20;;;;;;;8.93;2.58;;;15.40;99.90;;;;;;5067387;28;20056;-74
2023/01/19 11:14:12;;;;;;;8.77;2.97;;;15.30;99.90;;;;;;5066982;28;20063;-74
2023/01/19 11:16:45;;;;;;;6.30;2.40;;;15.30;99.90;;;;;;5068636;28;20044;-76
2023/01/19 11:19:31;;;;;;;7.22;2.55;;;15.20;99.90;;;;;;5068740;28;20040;-75
2023/01/19 11:22:23;;;;;;;10.20;2.45;;;15.10;99.90;;;;;;5068206;28;20051;-75
2023/01/19 11:24:51;;;;;;;5.53;2.30;;;15.00;99.90;;;;;;5068506;28;20066;-75
2023/01/19 11:27:20;;;;;;;6.88;2.22;;;15.00;99.90;;;;;;5068489;28;20049;-74
2023/01/19 11:29:56;;;;;;;4.72;1.77;;;15.10;99.90;;;;;;5050990;28;20163;-74
2023/01/19 11:32:26;;;;;;;6.53;3.72;;;15.00;99.90;;;;;;5068360;28;20055;-75
2023/01/19 11:34:54;;;;;;;5.50;2.90;;;15.00;99.90;;;;;;5067159;28;20500;-75
2023/01/19 11:37:28;;;;;;;16.40;8.32;;;15.10;99.90;;;;;;5068749;28;20399;-74
2023/01/19 11:39:59;;;;;;;8.23;4.45;;;15.10;99.90;;;;;;5068553;28;20511;-75
2023/01/19 11:42:31;;;;;;;9.75;4.10;;;15.20;99.90;;;;;;5068043;28;20045;-74
2023/01/19 11:45:16;;;;;;;7.53;3.03;;;15.20;99.90;;;;;;5068647;28;20189;-74
2023/01/19 11:47:48;;;;;;;5.60;3.35;;;15.10;99.90;;;;;;5071071;28;20060;-75
2023/01/19 11:50:46;;;;;;;7.65;3.63;;;15.20;99.90;;;;;;5071162;28;20109;-75
2023/01/19 11:53:27;;;;;;;9.40;3.67;;;15.20;99.90;;;;;;5066558;28;20044;-74
2023/01/19 11:56:09;;;;;;;6.15;3.72;;;15.10;99.90;;;;;;5054765;28;20056;-74
2023/01/19 11:58:46;;;;;;;11.63;5.40;;;15.00;99.90;;;;;;5054123;28;20048;-75
2023/01/19 12:01:41;;;;;;;9.00;3.88;;;14.90;99.90;;;;;;5070809;28;20101;-74
2023/01/19 12:04:43;;;;;;;8.18;2.92;;;14.90;99.90;;;;;;5070769;28;20123;-74
2023/01/19 12:07:11;;;;;;;8.57;3.70;;;14.90;99.90;;;;;;5060288;28;20048;-74
2023/01/19 12:09:46;;;;;;;6.53;3.00;;;15.00;99.90;;;;;;5070908;28;20044;-75
2023/01/19 12:12:37;;;;;;;6.13;3.35;;;15.00;99.90;;;;;;5071574;28;20033;-74
2023/01/19 12:15:07;;;;;;;4.82;2.40;;;14.90;99.90;;;;;;5070951;28;20090;-74
2023/01/19 12:17:41;;;;;;;8.80;2.58;;;14.80;99.90;;;;;;5070212;28;20052;-74
2023/01/19 12:20:29;;;;;;;6.97;2.33;;;14.80;99.90;;;;;;5070699;28;20136;-74
2023/01/19 12:23:22;;;;;;;14.13;2.97;;;14.80;99.90;;;;;;5070511;28;20040;-74
2023/01/19 12:26:05;;;;;;;5.57;2.60;;;14.70;99.90;;;;;;5069862;28;20059;-75
2023/01/19 12:28:38;;;;;;;4.47;2.22;;;14.60;99.90;;;;;;5071549;28;20056;-74
2023/01/19 12:31:07;;;;;;;4.63;1.98;;;14.50;99.90;;;;;;5053533;28;20048;-75
2023/01/19 12:33:39;;;;;;;13.20;3.45;;;14.50;99.90;;;;;;5069030;28;20090;-75
2023/01/19 12:36:15;;;;;;;11.27;2.67;;;14.50;99.90;;;;;;5071531;28;20510;-74
2023/01/19 12:38:56;;;;;;;8.23;2.35;;;14.40;99.90;;;;;;5071245;28;20053;-75
2023/01/19 12:41:33;;;;;;;7.00;2.58;;;14.30;99.90;;;;;;5070136;28;20399;-74
2023/01/19 12:44:10;;;;;;;5.75;3.20;;;14.30;99.90;;;;;;5068639;28;20045;-76
2023/01/19 12:46:41;;;;;;;6.03;3.13;;;14.30;99.90;;;;;;5069764;28;20037;-74
2023/01/19 12:49:21;;;;;;;10.43;4.28;;;14.20;99.90;;;;;;5071418;28;20044;-74
2023/01/19 12:51:51;;;;;;;7.97;3.75;;;14.20;99.90;;;;;;5070950;28;20535;-74
2023/01/19 12:54:32;;;;;;;6.10;3.85;;;14.20;99.90;;;;;;5070796;28;20052;-74
2023/01/19 12:57:07;;;;;;;10.25;4.38;;;14.20;99.90;;;;;;5070323;28;20057;-74
2023/01/19 12:59:37;;;;;;;6.95;3.25;;;14.20;99.90;;;;;;5070829;28;20060;-74
2023/01/19 13:02:17;;;;;;;4.93;3.42;;;14.30;99.90;;;;;;5069278;28;20044;-74
2023/01/19 13:05:29;;;;;;;3.78;2.70;;;14.20;99.90;;;;;;5070858;28;20048;-74
2023/01/19 13:08:01;;;;;;;5.78;2.40;;;14.10;99.90;;;;;;5048254;28;20049;-75
2023/01/19 13:11:16;;;;;;;4.88;2.47;;;14.20;99.90;;;;;;5048532;28;20051;-74
2023/01/19 13:13:47;;;;;;;3.67;1.95;;;14.00;99.90;;;;;;4986214;28;20046;-74
2023/01/19 13:16:18;;;;;;;4.18;2.35;;;14.00;99.90;;;;;;4989075;28;20062;-74
2023/01/19 13:19:01;;;;;;;4.47;2.75;;;14.10;99.90;;;;;;5037332;28;20540;-74